createdAt,value
2022-08-17T10:41:42.193Z,1.90
2022-08-17T10:44:50.907Z,1.90
2022-08-17T10:47:21.965Z,1.83
2022-08-17T10:49:57.643Z,1.80
2022-08-17T10:52:47.599Z,1.63
2022-08-17T10:55:20.735Z,2.00
2022-08-17T10:57:52.086Z,1.92
2022-08-17T11:00:56.451Z,1.23
2022-08-17T11:03:29.272Z,2.13
2022-08-17T11:06:24.080Z,1.42
2022-08-17T11:09:32.878Z,1.55
2022-08-17T11:12:42.400Z,1.65
2022-08-17T11:15:52.257Z,1.90
2022-08-17T11:18:52.477Z,1.23
2022-08-17T11:21:52.173Z,1.25
2022-08-17T11:24:53.987Z,1.60
2022-08-17T11:27:36.074Z,2.22
2022-08-17T11:30:14.768Z,2.15
2022-08-17T11:32:54.641Z,2.33
2022-08-17T11:35:46.755Z,2.22
2022-08-17T11:38:48.448Z,2.05
2022-08-17T11:41:47.206Z,2.10
2022-08-17T11:44:32.918Z,2.63
2022-08-17T11:48:26.448Z,3.40
2022-08-17T11:51:40.599Z,3.00
2022-08-17T11:54:41.793Z,2.30
2022-08-17T11:57:50.737Z,2.97
2022-08-17T12:00:59.185Z,3.67
2022-08-17T12:03:53.826Z,2.33
2022-08-17T12:06:56.508Z,2.58
2022-08-17T12:09:34.157Z,2.65
2022-08-17T12:12:19.923Z,2.65
2022-08-17T12:17:43.155Z,2.10
2022-08-17T12:20:37.333Z,2.17
2022-08-17T12:23:32.830Z,3.20
2022-08-17T12:26:13.740Z,4.43
2022-08-17T12:28:51.708Z,3.45
2022-08-17T12:33:54.362Z,4.18
2022-08-17T12:36:30.056Z,5.55
2022-08-17T12:39:14.139Z,7.85
2022-08-17T12:41:50.298Z,8.50
2022-08-17T12:44:24.838Z,8.82
2022-08-17T12:47:22.319Z,8.35
2022-08-17T12:49:55.655Z,6.15
2022-08-17T12:52:31.418Z,6.00
2022-08-17T12:55:14.844Z,5.35
2022-08-17T12:57:49.818Z,3.67
2022-08-17T13:00:47.401Z,3.10
2022-08-17T13:06:13.637Z,2.90
2022-08-17T13:08:47.179Z,2.78
2022-08-17T13:11:26.895Z,2.45
2022-08-17T13:13:58.317Z,2.70
2022-08-17T13:16:33.136Z,2.80
2022-08-17T13:19:20.513Z,2.83
2022-08-17T13:22:14.384Z,2.88
2022-08-17T13:24:56.147Z,2.65
2022-08-17T13:27:28.332Z,2.20
2022-08-17T13:30:07.150Z,2.33
2022-08-17T13:32:45.158Z,2.60
2022-08-17T13:35:41.989Z,2.90
2022-08-17T13:40:54.684Z,2.85
2022-08-17T13:43:48.926Z,2.25
2022-08-17T13:46:29.087Z,3.13
2022-08-17T13:49:06.398Z,2.80
2022-08-17T13:51:43.568Z,2.83
2022-08-17T13:54:37.185Z,2.83
2022-08-17T13:57:14.787Z,3.53
2022-08-17T13:59:54.785Z,2.97
2022-08-17T14:02:28.806Z,3.00
2022-08-17T14:05:00.648Z,3.30
2022-08-17T14:07:36.993Z,3.13
2022-08-17T14:10:17.045Z,3.38
2022-08-17T14:12:47.703Z,3.53
2022-08-17T14:15:22.207Z,4.00
2022-08-17T14:17:52.815Z,3.20
2022-08-17T14:20:24.472Z,3.33
2022-08-17T14:22:57.530Z,3.75
2022-08-17T14:25:31.299Z,4.15
2022-08-17T14:28:01.103Z,3.67
2022-08-17T14:30:31.069Z,3.60
2022-08-17T14:33:03.755Z,3.33
2022-08-17T14:35:33.414Z,2.83
2022-08-17T14:38:03.906Z,3.35
2022-08-17T14:40:35.047Z,3.20
2022-08-17T14:43:04.957Z,2.88
2022-08-17T14:45:35.468Z,3.15
2022-08-17T14:48:10.373Z,2.60
2022-08-17T14:50:42.937Z,3.17
2022-08-17T14:53:15.579Z,2.58
2022-08-17T14:55:47.525Z,2.80
2022-08-17T14:58:18.380Z,2.42
2022-08-17T15:00:48.247Z,2.28
2022-08-17T15:03:20.140Z,3.10
2022-08-17T15:05:50.274Z,3.03
2022-08-17T15:08:20.260Z,3.70
2022-08-17T15:10:54.401Z,3.03
2022-08-17T15:13:26.759Z,3.50
2022-08-17T15:15:57.888Z,3.38
2022-08-17T15:18:27.621Z,3.25
2022-08-17T15:20:57.351Z,3.05
2022-08-17T15:23:28.659Z,3.80
2022-08-17T15:25:58.250Z,4.00
2022-08-17T15:28:31.424Z,3.63
2022-08-17T15:31:02.309Z,3.13
2022-08-17T15:33:32.809Z,3.20
2022-08-17T15:36:06.130Z,3.53
2022-08-17T15:38:41.107Z,4.00
2022-08-17T15:41:17.160Z,3.72
2022-08-17T15:43:51.530Z,3.85
2022-08-17T15:46:24.876Z,3.80
2022-08-17T15:49:00.910Z,3.90
2022-08-17T15:51:36.867Z,3.97
2022-08-17T15:54:19.067Z,3.75
2022-08-17T15:56:54.691Z,3.47
2022-08-17T15:59:24.355Z,3.55
2022-08-17T16:03:15.986Z,3.63
2022-08-17T16:04:46.222Z,3.35
2022-08-17T16:07:26.710Z,2.95
2022-08-17T16:09:59.830Z,3.63
2022-08-17T16:12:29.647Z,3.72
2022-08-17T16:14:59.427Z,4.35
2022-08-17T16:17:39.573Z,3.58
2022-08-17T16:20:20.097Z,3.00
2022-08-17T16:22:52.291Z,3.45
2022-08-17T16:25:50.398Z,3.35
2022-08-17T16:28:30.889Z,3.25
2022-08-17T16:31:08.006Z,2.95
2022-08-17T16:33:41.216Z,2.58
2022-08-17T16:36:12.686Z,3.10
2022-08-17T16:38:42.318Z,2.22
2022-08-17T16:41:14.366Z,1.95
2022-08-17T16:43:47.219Z,2.20
2022-08-17T16:46:16.934Z,2.53
2022-08-17T16:48:48.195Z,2.25
2022-08-17T16:51:17.786Z,2.53
2022-08-17T16:53:47.366Z,2.30
2022-08-17T16:56:28.406Z,2.22
2022-08-17T16:58:57.987Z,2.17
2022-08-17T17:01:44.980Z,2.35
2022-08-17T17:04:19.334Z,2.20
2022-08-17T17:07:18.899Z,2.03
2022-08-17T17:09:54.132Z,1.90
2022-08-17T17:13:00.933Z,2.20
2022-08-17T17:15:17.609Z,1.85
2022-08-17T17:17:53.909Z,2.10
2022-08-17T17:20:31.356Z,2.15
2022-08-17T17:23:20.256Z,2.20
2022-08-17T17:26:05.254Z,2.22
2022-08-17T17:28:57.814Z,1.85
2022-08-17T17:31:33.600Z,1.60
2022-08-17T17:34:06.487Z,1.90
2022-08-17T17:36:48.849Z,1.95
2022-08-17T17:39:22.575Z,2.03
2022-08-17T17:41:58.394Z,2.30
2022-08-17T17:44:35.078Z,1.60
2022-08-17T17:47:05.817Z,2.03
2022-08-17T17:49:40.476Z,2.00
2022-08-17T17:52:42.667Z,2.25
2022-08-17T17:55:51.435Z,2.22
2022-08-17T17:58:55.567Z,1.77
2022-08-17T18:01:52.326Z,2.10
2022-08-17T18:04:43.098Z,2.25
2022-08-17T18:07:37.031Z,2.20
2022-08-17T18:10:30.134Z,1.98
2022-08-17T18:13:37.050Z,2.30
2022-08-17T18:16:12.548Z,2.30
2022-08-17T18:18:46.407Z,1.90
2022-08-17T18:21:21.940Z,2.85
2022-08-17T18:23:56.680Z,2.10
2022-08-17T18:26:56.828Z,1.90
2022-08-17T18:29:38.878Z,2.25
2022-08-17T18:32:36.144Z,2.10
2022-08-17T18:35:29.971Z,1.98
2022-08-17T18:38:20.248Z,2.00
2022-08-17T18:41:01.038Z,2.15
2022-08-17T18:43:44.064Z,2.35
2022-08-17T18:46:32.047Z,2.40
2022-08-17T18:49:08.463Z,2.10
2022-08-17T18:51:44.727Z,2.40
2022-08-17T18:54:26.608Z,2.47
2022-08-17T18:57:01.357Z,2.42
2022-08-17T18:59:50.652Z,2.67
2022-08-17T19:02:43.873Z,2.30
2022-08-17T19:05:38.640Z,1.77
2022-08-17T19:08:37.816Z,1.92
2022-08-17T19:11:36.047Z,1.65
2022-08-17T19:14:11.959Z,1.90
2022-08-17T19:16:57.386Z,2.42
2022-08-17T19:19:51.482Z,1.63
2022-08-17T19:22:31.037Z,1.70
2022-08-17T19:25:22.680Z,2.08
2022-08-17T19:28:22.521Z,2.10
2022-08-17T19:30:58.824Z,1.88
2022-08-17T19:33:28.808Z,1.52
2022-08-17T19:36:32.419Z,1.70
2022-08-17T19:39:42.961Z,1.40
2022-08-17T19:42:51.309Z,1.38
2022-08-17T19:45:50.713Z,1.60
2022-08-17T19:48:59.468Z,1.30
2022-08-17T19:51:54.179Z,1.20
2022-08-17T19:54:46.299Z,1.70
2022-08-17T19:57:55.109Z,1.67
2022-08-17T20:00:24.837Z,1.40
2022-08-17T20:03:16.420Z,1.20
2022-08-17T20:06:12.458Z,1.13
2022-08-17T20:09:05.601Z,1.40
2022-08-17T20:11:48.525Z,1.50
2022-08-17T20:14:23.147Z,1.00
2022-08-17T20:16:53.396Z,0.95
2022-08-17T20:19:38.838Z,1.20
2022-08-17T20:22:22.795Z,1.25
2022-08-17T20:25:17.084Z,1.33
2022-08-17T20:28:08.378Z,0.95
2022-08-17T20:30:44.296Z,1.45
2022-08-17T20:33:39.007Z,0.93
2022-08-17T20:36:23.282Z,0.93
2022-08-17T20:39:00.872Z,1.08
2022-08-17T20:41:32.495Z,1.45
2022-08-17T20:44:07.204Z,1.20
2022-08-17T20:46:58.748Z,1.67
2022-08-17T20:49:55.315Z,1.20
2022-08-17T20:52:48.605Z,1.40
2022-08-17T20:55:53.567Z,1.40
2022-08-17T20:58:48.212Z,1.08
2022-08-17T21:01:26.010Z,1.30
2022-08-17T21:03:57.717Z,1.15
2022-08-17T21:06:27.919Z,1.20
2022-08-17T21:09:31.550Z,1.10
2022-08-17T21:12:05.637Z,1.20
2022-08-17T21:15:03.263Z,0.93
2022-08-17T21:17:53.454Z,1.30
2022-08-17T21:20:44.869Z,1.00
2022-08-17T21:23:31.389Z,1.63
2022-08-17T21:26:32.650Z,1.35
2022-08-17T21:29:31.286Z,1.63
2022-08-17T21:32:21.816Z,1.77
2022-08-17T21:35:31.735Z,1.48
2022-08-17T21:38:16.863Z,1.40
2022-08-17T21:40:51.597Z,1.10
2022-08-17T21:43:35.930Z,1.42
2022-08-17T21:46:22.579Z,1.13
2022-08-17T21:48:54.515Z,1.60
2022-08-17T21:51:30.950Z,1.20
2022-08-17T21:54:05.460Z,1.38
2022-08-17T21:56:41.549Z,1.02
2022-08-17T21:59:27.767Z,1.70
2022-08-17T22:02:04.022Z,1.23
2022-08-17T22:04:38.468Z,1.48
2022-08-17T22:07:14.287Z,1.10
2022-08-17T22:09:47.501Z,1.38
2022-08-17T22:12:22.986Z,1.20
2022-08-17T22:15:08.939Z,1.65
2022-08-17T22:17:47.867Z,1.17
2022-08-17T22:20:22.471Z,1.20
2022-08-17T22:23:35.097Z,1.38
2022-08-17T22:26:09.604Z,1.10
2022-08-17T22:28:51.449Z,1.50
2022-08-17T22:31:26.889Z,1.30
2022-08-17T22:34:16.050Z,1.77
2022-08-17T22:36:45.800Z,1.73
2022-08-17T22:39:42.434Z,1.88
2022-08-17T22:42:17.027Z,1.13
2022-08-17T22:44:52.178Z,1.35
2022-08-17T22:47:33.128Z,1.27
2022-08-17T22:50:14.275Z,1.50
2022-08-17T22:53:06.915Z,1.38
2022-08-17T22:55:56.638Z,2.25
2022-08-17T22:58:59.247Z,1.98
2022-08-17T23:01:34.019Z,1.55
2022-08-17T23:04:09.376Z,1.90
2022-08-17T23:06:41.228Z,1.50
2022-08-17T23:09:11.539Z,1.30
2022-08-17T23:11:50.250Z,1.73
2022-08-17T23:14:22.368Z,1.95
2022-08-17T23:16:52.598Z,1.73
2022-08-17T23:19:23.730Z,1.50
2022-08-17T23:21:54.212Z,1.80
2022-08-17T23:24:27.528Z,2.03
2022-08-17T23:26:59.797Z,1.75
2022-08-17T23:29:30.960Z,1.88
2022-08-17T23:32:02.890Z,1.77
2022-08-17T23:34:32.848Z,1.73
2022-08-17T23:37:03.839Z,4.13
2022-08-17T23:39:33.687Z,4.72
2022-08-17T23:42:09.489Z,6.68
2022-08-17T23:44:40.759Z,2.97
2022-08-17T23:47:10.590Z,1.92
2022-08-17T23:49:40.763Z,2.80
2022-08-17T23:52:15.364Z,2.38
2022-08-17T23:54:49.015Z,2.58
2022-08-17T23:57:33.927Z,2.83
